Adkins, Texas
Current Conditions -  °F | °C
As of 6:58 AM on Saturday 20 Dec 2014 (Local Time) from KRND Reporting Station
Overcast Overcast  
Wind Chill: 46°   Ceiling: 1500
Heat Index: 49°   Visibility: 10mi
Dew Point: 42°   Wind: 7mph
Humidity: 78%   Direction: 20°NNE
Pressure: 30.21"   Gusts: NA
Location:  29.39°N, 98.24°W
Report Text: KRND 201258Z AUTO 02006KT 10SM OVC015 09/06 A3021 RMK AO2 SLP230 T00940057
Loading
Personal Weather Stations






























Interactive Weather Map New forecast layout! Learn more

10-Day Weather Forecast

Advertisements
Track Severe Weather on mobile